AMX55KB MMMD-MMMY
Flight info
| Callsign | AMX55KB |
|---|---|
| Flight time | 1h 41m |
| Altitude | 36000 |
| Route | PAGAY3B MID UJ26 PERGO UT37 SESNO UJ15E RETOS RETOS1A |
| Aircraft | B38M/M-SDE1FGHILORVWXY/HB1 |
Departure
| Time | 2026-05-05 23:39 |
|---|---|
| Airport | Manuel Crescencio Rejón International Airport (MMMD) |
Arrival
| Time | 2026-05-06 01:20 |
|---|---|
| Airport | Monterrey International Airport (MMMY) |
| Time | Latitude | Longitude | Altitude | Speed | Heading |
|---|---|---|---|---|---|
| 2026-05-05 23:30 | 20.93325 | -89.66206 | 41 ft | 0 kts | 75° |
| 2026-05-05 23:31 | 20.93326 | -89.66201 | 41 ft | 3 kts | 75° |
| 2026-05-05 23:31 | 20.93333 | -89.66173 | 41 ft | 4 kts | 75° |
| 2026-05-05 23:31 | 20.93340 | -89.66146 | 41 ft | 4 kts | 75° |
| 2026-05-05 23:32 | 20.93347 | -89.66118 | 39 ft | 3 kts | 75° |
| 2026-05-05 23:32 | 20.93347 | -89.66117 | 39 ft | 0 kts | 75° |
| 2026-05-05 23:34 | 20.93348 | -89.66115 | 39 ft | 2 kts | 69° |
| 2026-05-05 23:34 | 20.93351 | -89.66109 | 40 ft | 0 kts | 53° |
| 2026-05-05 23:34 | 20.93353 | -89.66109 | 41 ft | 0 kts | 28° |
| 2026-05-05 23:34 | 20.93360 | -89.66108 | 41 ft | 3 kts | 8° |
| 2026-05-05 23:35 | 20.93411 | -89.66101 | 41 ft | 12 kts | 1° |
| 2026-05-05 23:35 | 20.93520 | -89.66100 | 41 ft | 14 kts | 28° |
| 2026-05-05 23:35 | 20.93553 | -89.66034 | 41 ft | 10 kts | 91° |
| 2026-05-05 23:35 | 20.93569 | -89.65984 | 40 ft | 5 kts | 34° |
| 2026-05-05 23:36 | 20.93609 | -89.65972 | 42 ft | 7 kts | 5° |
| 2026-05-05 23:36 | 20.93659 | -89.65971 | 42 ft | 8 kts | 0° |
| 2026-05-05 23:36 | 20.93716 | -89.65971 | 43 ft | 9 kts | 0° |
| 2026-05-05 23:36 | 20.93786 | -89.65970 | 43 ft | 12 kts | 0° |
| 2026-05-05 23:37 | 20.93880 | -89.65969 | 41 ft | 15 kts | 1° |
| 2026-05-05 23:37 | 20.93992 | -89.65967 | 41 ft | 17 kts | 1° |
| 2026-05-05 23:37 | 20.94057 | -89.65900 | 42 ft | 14 kts | 91° |
| 2026-05-05 23:37 | 20.94044 | -89.65789 | 40 ft | 15 kts | 118° |
| 2026-05-05 23:38 | 20.93965 | -89.65764 | 42 ft | 12 kts | 182° |
| 2026-05-05 23:38 | 20.93841 | -89.65767 | 42 ft | 41 kts | 181° |
| 2026-05-05 23:38 | 20.93261 | -89.65777 | 41 ft | 124 kts | 181° |
| 2026-05-05 23:38 | 20.92167 | -89.65795 | 154 ft | 182 kts | 180° |
| 2026-05-05 23:39 | 20.90865 | -89.65813 | 1055 ft | 184 kts | 175° |
| 2026-05-05 23:39 | 20.89570 | -89.66093 | 2003 ft | 198 kts | 211° |
| 2026-05-05 23:39 | 20.88727 | -89.67247 | 3013 ft | 210 kts | 251° |
| 2026-05-05 23:39 | 20.88692 | -89.68888 | 3561 ft | 238 kts | 285° |
| 2026-05-05 23:40 | 20.89444 | -89.70490 | 4328 ft | 248 kts | 303° |
| 2026-05-05 23:40 | 20.90400 | -89.72085 | 5115 ft | 259 kts | 300° |
| 2026-05-05 23:40 | 20.91348 | -89.73809 | 5851 ft | 276 kts | 298° |
| 2026-05-05 23:40 | 20.92297 | -89.75649 | 6664 ft | 286 kts | 297° |
| 2026-05-05 23:41 | 20.93239 | -89.77545 | 7576 ft | 292 kts | 297° |
| 2026-05-05 23:41 | 20.94198 | -89.79509 | 8388 ft | 300 kts | 296° |
| 2026-05-05 23:41 | 20.95148 | -89.81511 | 9406 ft | 302 kts | 297° |
| 2026-05-05 23:41 | 20.96096 | -89.83500 | 10319 ft | 305 kts | 297° |
| 2026-05-05 23:42 | 20.97087 | -89.85573 | 10822 ft | 323 kts | 297° |
| 2026-05-05 23:42 | 20.98128 | -89.87783 | 11202 ft | 342 kts | 298° |
| 2026-05-05 23:42 | 20.99227 | -89.90125 | 11498 ft | 362 kts | 298° |
| 2026-05-05 23:42 | 21.00378 | -89.92589 | 11807 ft | 378 kts | 298° |
| 2026-05-05 23:43 | 21.01569 | -89.95127 | 12334 ft | 384 kts | 298° |
| 2026-05-05 23:43 | 21.02789 | -89.97682 | 13005 ft | 386 kts | 299° |
| 2026-05-05 23:43 | 21.04023 | -90.00244 | 13644 ft | 389 kts | 300° |
| 2026-05-05 23:43 | 21.05271 | -90.02825 | 14152 ft | 392 kts | 300° |
| 2026-05-05 23:44 | 21.06531 | -90.05427 | 14643 ft | 395 kts | 299° |
| 2026-05-05 23:44 | 21.07778 | -90.08004 | 15117 ft | 398 kts | 299° |
| 2026-05-05 23:44 | 21.09063 | -90.10661 | 15603 ft | 402 kts | 299° |
| 2026-05-05 23:44 | 21.10350 | -90.13325 | 16072 ft | 405 kts | 299° |
| 2026-05-05 23:45 | 21.11652 | -90.16019 | 16550 ft | 408 kts | 300° |
| 2026-05-05 23:45 | 21.12961 | -90.18726 | 17015 ft | 410 kts | 299° |
| 2026-05-05 23:45 | 21.14283 | -90.21463 | 17454 ft | 414 kts | 300° |
| 2026-05-05 23:45 | 21.15605 | -90.24209 | 17937 ft | 415 kts | 299° |
| 2026-05-05 23:46 | 21.16936 | -90.26966 | 18308 ft | 419 kts | 299° |
| 2026-05-05 23:46 | 21.18276 | -90.29745 | 18701 ft | 421 kts | 299° |
| 2026-05-05 23:46 | 21.19606 | -90.32506 | 19036 ft | 423 kts | 299° |
| 2026-05-05 23:46 | 21.20959 | -90.35316 | 19452 ft | 424 kts | 299° |
| 2026-05-05 23:47 | 21.22317 | -90.38136 | 19758 ft | 427 kts | 299° |
| 2026-05-05 23:47 | 21.23679 | -90.40963 | 20155 ft | 428 kts | 299° |
| 2026-05-05 23:47 | 21.25045 | -90.43806 | 20457 ft | 431 kts | 298° |
| 2026-05-05 23:47 | 21.26422 | -90.46668 | 20814 ft | 432 kts | 298° |
| 2026-05-05 23:48 | 21.27802 | -90.49541 | 21147 ft | 435 kts | 298° |
| 2026-05-05 23:48 | 21.29194 | -90.52438 | 21471 ft | 436 kts | 298° |
| 2026-05-05 23:48 | 21.30585 | -90.55338 | 21801 ft | 438 kts | 298° |
| 2026-05-05 23:48 | 21.31979 | -90.58248 | 22108 ft | 440 kts | 298° |
| 2026-05-05 23:49 | 21.33381 | -90.61169 | 22446 ft | 441 kts | 298° |
| 2026-05-05 23:49 | 21.34778 | -90.64077 | 22708 ft | 445 kts | 298° |
| 2026-05-05 23:49 | 21.36176 | -90.67003 | 23001 ft | 447 kts | 298° |
| 2026-05-05 23:49 | 21.37596 | -90.69964 | 23317 ft | 448 kts | 298° |
| 2026-05-05 23:50 | 21.39006 | -90.72918 | 23590 ft | 449 kts | 298° |
| 2026-05-05 23:50 | 21.40439 | -90.75909 | 23868 ft | 450 kts | 298° |
| 2026-05-05 23:50 | 21.41873 | -90.78909 | 24079 ft | 453 kts | 298° |
| 2026-05-05 23:50 | 21.43315 | -90.81922 | 24295 ft | 455 kts | 297° |
| 2026-05-05 23:51 | 21.44746 | -90.84920 | 24499 ft | 457 kts | 297° |
| 2026-05-05 23:51 | 21.46195 | -90.87955 | 24749 ft | 459 kts | 297° |
| 2026-05-05 23:51 | 21.47650 | -90.91011 | 25018 ft | 459 kts | 298° |
| 2026-05-05 23:51 | 21.49108 | -90.94062 | 25280 ft | 460 kts | 297° |
| 2026-05-05 23:52 | 21.50571 | -90.97129 | 25470 ft | 463 kts | 297° |
| 2026-05-05 23:52 | 21.52041 | -91.00219 | 25668 ft | 465 kts | 297° |
| 2026-05-05 23:52 | 21.53516 | -91.03319 | 25897 ft | 467 kts | 297° |
| 2026-05-05 23:52 | 21.54996 | -91.06428 | 26123 ft | 468 kts | 297° |
| 2026-05-05 23:53 | 21.56481 | -91.09551 | 26322 ft | 470 kts | 297° |
| 2026-05-05 23:53 | 21.57966 | -91.12678 | 26555 ft | 471 kts | 297° |
| 2026-05-05 23:53 | 21.59437 | -91.15778 | 26831 ft | 471 kts | 297° |
| 2026-05-05 23:53 | 21.60936 | -91.18925 | 26991 ft | 474 kts | 297° |
| 2026-05-05 23:54 | 21.62433 | -91.22092 | 27237 ft | 474 kts | 297° |
| 2026-05-05 23:54 | 21.63934 | -91.25241 | 27411 ft | 477 kts | 297° |
| 2026-05-05 23:54 | 21.65438 | -91.28430 | 27541 ft | 479 kts | 297° |
| 2026-05-05 23:54 | 21.66954 | -91.31627 | 27784 ft | 480 kts | 297° |
| 2026-05-05 23:55 | 21.68470 | -91.34833 | 27929 ft | 483 kts | 297° |
| 2026-05-05 23:55 | 21.69990 | -91.38056 | 28190 ft | 482 kts | 297° |
| 2026-05-05 23:55 | 21.71519 | -91.41273 | 28409 ft | 483 kts | 297° |
| 2026-05-05 23:55 | 21.73040 | -91.44491 | 28629 ft | 483 kts | 297° |
| 2026-05-05 23:56 | 21.74552 | -91.47685 | 28890 ft | 482 kts | 297° |
| 2026-05-05 23:56 | 21.76074 | -91.50899 | 29165 ft | 481 kts | 297° |
| 2026-05-05 23:56 | 21.77596 | -91.54111 | 29435 ft | 481 kts | 297° |
| 2026-05-05 23:56 | 21.79114 | -91.57322 | 29710 ft | 481 kts | 296° |
| 2026-05-05 23:57 | 21.80631 | -91.60537 | 29997 ft | 480 kts | 296° |
| 2026-05-05 23:57 | 21.82146 | -91.63743 | 30241 ft | 480 kts | 296° |
| 2026-05-05 23:57 | 21.83639 | -91.66905 | 30485 ft | 479 kts | 296° |
| 2026-05-05 23:57 | 21.85150 | -91.70106 | 30745 ft | 479 kts | 296° |
| 2026-05-05 23:58 | 21.86657 | -91.73302 | 30999 ft | 478 kts | 296° |
| 2026-05-05 23:58 | 21.88160 | -91.76496 | 31259 ft | 478 kts | 296° |
| 2026-05-05 23:58 | 21.89660 | -91.79684 | 31528 ft | 477 kts | 296° |
| 2026-05-05 23:58 | 21.91157 | -91.82868 | 31806 ft | 476 kts | 296° |
| 2026-05-05 23:59 | 21.92651 | -91.86046 | 32117 ft | 475 kts | 296° |
| 2026-05-05 23:59 | 21.94143 | -91.89219 | 32423 ft | 474 kts | 296° |
| 2026-05-05 23:59 | 21.95627 | -91.92378 | 32725 ft | 472 kts | 296° |
| 2026-05-05 23:59 | 21.97110 | -91.95533 | 33044 ft | 471 kts | 296° |
| 2026-05-06 00:00 | 21.98590 | -91.98691 | 33340 ft | 470 kts | 296° |
| 2026-05-06 00:00 | 22.00046 | -92.01795 | 33640 ft | 470 kts | 296° |
| 2026-05-06 00:00 | 22.01520 | -92.04944 | 33932 ft | 469 kts | 296° |
| 2026-05-06 00:00 | 22.02989 | -92.08083 | 34198 ft | 468 kts | 296° |
| 2026-05-06 00:01 | 22.04451 | -92.11210 | 34466 ft | 467 kts | 296° |
| 2026-05-06 00:01 | 22.05914 | -92.14341 | 34727 ft | 466 kts | 296° |
| 2026-05-06 00:01 | 22.07371 | -92.17464 | 34982 ft | 465 kts | 296° |
| 2026-05-06 00:01 | 22.08823 | -92.20577 | 35238 ft | 464 kts | 296° |
| 2026-05-06 00:02 | 22.10270 | -92.23681 | 35499 ft | 463 kts | 296° |
| 2026-05-06 00:02 | 22.11718 | -92.26789 | 35756 ft | 462 kts | 296° |
| 2026-05-06 00:02 | 22.13140 | -92.29846 | 35886 ft | 462 kts | 296° |
| 2026-05-06 00:02 | 22.14581 | -92.32944 | 35875 ft | 459 kts | 296° |
| 2026-05-06 00:03 | 22.17434 | -92.39086 | 35876 ft | 458 kts | 296° |
| 2026-05-06 00:03 | 22.20254 | -92.45172 | 35873 ft | 458 kts | 296° |
| 2026-05-06 00:04 | 22.23098 | -92.51317 | 35873 ft | 458 kts | 296° |
| 2026-05-06 00:04 | 22.25945 | -92.57475 | 35873 ft | 458 kts | 295° |
| 2026-05-06 00:05 | 22.30205 | -92.66703 | 35870 ft | 458 kts | 295° |
| 2026-05-06 00:06 | 22.33031 | -92.72835 | 35867 ft | 457 kts | 295° |
| 2026-05-06 00:06 | 22.35862 | -92.78985 | 35867 ft | 457 kts | 295° |
| 2026-05-06 00:07 | 22.38694 | -92.85143 | 35869 ft | 457 kts | 295° |
| 2026-05-06 00:07 | 22.41523 | -92.91305 | 35864 ft | 457 kts | 295° |
| 2026-05-06 00:08 | 22.44340 | -92.97454 | 35871 ft | 455 kts | 295° |
| 2026-05-06 00:08 | 22.47124 | -93.03525 | 35865 ft | 453 kts | 295° |
| 2026-05-06 00:09 | 22.49921 | -93.09638 | 35861 ft | 453 kts | 295° |
| 2026-05-06 00:09 | 22.52718 | -93.15758 | 35862 ft | 453 kts | 295° |
| 2026-05-06 00:10 | 22.55507 | -93.21869 | 35855 ft | 453 kts | 295° |
| 2026-05-06 00:10 | 22.58294 | -93.27983 | 35856 ft | 453 kts | 295° |
| 2026-05-06 00:11 | 22.61065 | -93.34069 | 35858 ft | 453 kts | 295° |
| 2026-05-06 00:11 | 22.63850 | -93.40194 | 35856 ft | 453 kts | 295° |
| 2026-05-06 00:12 | 22.66630 | -93.46316 | 35856 ft | 453 kts | 295° |
| 2026-05-06 00:12 | 22.69408 | -93.52439 | 35853 ft | 453 kts | 295° |
| 2026-05-06 00:13 | 22.71721 | -93.57545 | 35853 ft | 453 kts | 295° |
| 2026-05-06 00:13 | 22.74493 | -93.63672 | 35863 ft | 453 kts | 294° |
| 2026-05-06 00:14 | 22.77253 | -93.69777 | 35853 ft | 450 kts | 294° |
| 2026-05-06 00:14 | 22.80010 | -93.75883 | 35854 ft | 450 kts | 294° |
| 2026-05-06 00:15 | 22.82747 | -93.81953 | 35847 ft | 451 kts | 294° |
| 2026-05-06 00:15 | 22.85497 | -93.88063 | 35849 ft | 451 kts | 294° |
| 2026-05-06 00:16 | 22.88250 | -93.94182 | 35846 ft | 451 kts | 294° |
| 2026-05-06 00:16 | 22.91003 | -94.00313 | 35846 ft | 451 kts | 294° |
| 2026-05-06 00:17 | 22.93749 | -94.06434 | 35847 ft | 451 kts | 294° |
| 2026-05-06 00:17 | 22.96480 | -94.12528 | 35840 ft | 451 kts | 294° |
| 2026-05-06 00:18 | 22.99222 | -94.18655 | 35841 ft | 451 kts | 294° |
| 2026-05-06 00:18 | 23.01964 | -94.24791 | 35840 ft | 451 kts | 294° |
| 2026-05-06 00:19 | 23.04705 | -94.30933 | 35837 ft | 451 kts | 294° |
| 2026-05-06 00:19 | 23.07424 | -94.37031 | 35839 ft | 450 kts | 294° |
| 2026-05-06 00:20 | 23.10150 | -94.43154 | 35838 ft | 450 kts | 294° |
| 2026-05-06 00:20 | 23.12874 | -94.49280 | 35837 ft | 450 kts | 294° |
| 2026-05-06 00:21 | 23.15579 | -94.55371 | 35834 ft | 450 kts | 294° |
| 2026-05-06 00:21 | 23.18289 | -94.61481 | 35835 ft | 450 kts | 294° |
| 2026-05-06 00:22 | 23.21011 | -94.67626 | 35836 ft | 450 kts | 294° |
| 2026-05-06 00:22 | 23.23729 | -94.73772 | 35826 ft | 450 kts | 294° |
| 2026-05-06 00:23 | 23.26446 | -94.79921 | 35825 ft | 450 kts | 294° |
| 2026-05-06 00:23 | 23.29142 | -94.86030 | 35829 ft | 450 kts | 293° |
| 2026-05-06 00:24 | 23.31853 | -94.92181 | 35828 ft | 450 kts | 293° |
| 2026-05-06 00:24 | 23.34563 | -94.98339 | 35827 ft | 451 kts | 293° |
| 2026-05-06 00:25 | 23.37269 | -95.04496 | 35823 ft | 450 kts | 293° |
| 2026-05-06 00:25 | 23.39967 | -95.10643 | 35824 ft | 450 kts | 293° |
| 2026-05-06 00:26 | 23.42668 | -95.16804 | 35823 ft | 450 kts | 293° |
| 2026-05-06 00:26 | 23.45366 | -95.22965 | 35815 ft | 450 kts | 293° |
| 2026-05-06 00:27 | 23.48040 | -95.29082 | 35815 ft | 450 kts | 293° |
| 2026-05-06 00:27 | 23.50730 | -95.35241 | 35816 ft | 451 kts | 293° |
| 2026-05-06 00:28 | 23.53422 | -95.41413 | 35810 ft | 451 kts | 293° |
| 2026-05-06 00:28 | 23.56115 | -95.47597 | 35814 ft | 451 kts | 292° |
| 2026-05-06 00:29 | 23.58805 | -95.53782 | 35802 ft | 451 kts | 292° |
| 2026-05-06 00:29 | 23.61479 | -95.59936 | 35804 ft | 451 kts | 292° |
| 2026-05-06 00:30 | 23.64162 | -95.66121 | 35798 ft | 451 kts | 292° |
| 2026-05-06 00:30 | 23.66839 | -95.72299 | 35799 ft | 450 kts | 292° |
| 2026-05-06 00:31 | 23.69510 | -95.78472 | 35804 ft | 450 kts | 292° |
| 2026-05-06 00:31 | 23.72183 | -95.84659 | 35802 ft | 450 kts | 292° |
| 2026-05-06 00:32 | 23.74855 | -95.90852 | 35798 ft | 450 kts | 292° |
| 2026-05-06 00:32 | 23.77506 | -95.97001 | 35792 ft | 450 kts | 292° |
| 2026-05-06 00:33 | 23.80167 | -96.03184 | 35794 ft | 450 kts | 292° |
| 2026-05-06 00:33 | 23.82833 | -96.09387 | 35796 ft | 450 kts | 292° |
| 2026-05-06 00:34 | 23.85496 | -96.15591 | 35791 ft | 451 kts | 292° |
| 2026-05-06 00:34 | 23.88158 | -96.21802 | 35791 ft | 451 kts | 292° |
| 2026-05-06 00:35 | 23.90820 | -96.28020 | 35788 ft | 451 kts | 292° |
| 2026-05-06 00:35 | 23.93479 | -96.34240 | 35788 ft | 451 kts | 292° |
| 2026-05-06 00:36 | 23.96116 | -96.40417 | 35785 ft | 450 kts | 292° |
| 2026-05-06 00:36 | 23.98757 | -96.46611 | 35789 ft | 449 kts | 292° |
| 2026-05-06 00:37 | 24.01398 | -96.52815 | 35792 ft | 450 kts | 292° |
| 2026-05-06 00:37 | 24.04039 | -96.59026 | 35782 ft | 450 kts | 292° |
| 2026-05-06 00:38 | 24.06682 | -96.65250 | 35778 ft | 450 kts | 292° |
| 2026-05-06 00:38 | 24.09302 | -96.71429 | 35772 ft | 450 kts | 291° |
| 2026-05-06 00:39 | 24.11934 | -96.77645 | 35781 ft | 450 kts | 291° |
| 2026-05-06 00:39 | 24.14561 | -96.83856 | 35782 ft | 450 kts | 291° |
| 2026-05-06 00:40 | 24.17189 | -96.90080 | 35773 ft | 450 kts | 291° |
| 2026-05-06 00:40 | 24.19819 | -96.96314 | 35773 ft | 450 kts | 291° |
| 2026-05-06 00:41 | 24.22427 | -97.02507 | 35775 ft | 450 kts | 291° |
| 2026-05-06 00:41 | 24.25042 | -97.08726 | 35768 ft | 448 kts | 291° |
| 2026-05-06 00:42 | 24.27649 | -97.14933 | 35767 ft | 448 kts | 291° |
| 2026-05-06 00:42 | 24.30257 | -97.21150 | 35770 ft | 448 kts | 291° |
| 2026-05-06 00:43 | 24.32857 | -97.27358 | 35772 ft | 448 kts | 291° |
| 2026-05-06 00:43 | 24.35454 | -97.33568 | 35771 ft | 448 kts | 291° |
| 2026-05-06 00:44 | 24.38038 | -97.39754 | 35770 ft | 448 kts | 291° |
| 2026-05-06 00:44 | 24.40634 | -97.45979 | 35767 ft | 448 kts | 291° |
| 2026-05-06 00:45 | 24.43230 | -97.52212 | 35771 ft | 448 kts | 291° |
| 2026-05-06 00:45 | 24.45802 | -97.58395 | 35773 ft | 448 kts | 291° |
| 2026-05-06 00:46 | 24.48394 | -97.64635 | 35767 ft | 449 kts | 291° |
| 2026-05-06 00:46 | 24.50983 | -97.70876 | 35769 ft | 449 kts | 291° |
| 2026-05-06 00:47 | 24.53571 | -97.77124 | 35763 ft | 449 kts | 291° |
| 2026-05-06 00:47 | 24.56140 | -97.83336 | 35766 ft | 449 kts | 291° |
| 2026-05-06 00:48 | 24.58719 | -97.89580 | 35760 ft | 449 kts | 291° |
| 2026-05-06 00:48 | 24.61298 | -97.95834 | 35761 ft | 449 kts | 291° |
| 2026-05-06 00:49 | 24.63855 | -98.02042 | 35753 ft | 448 kts | 291° |
| 2026-05-06 00:49 | 24.66425 | -98.08289 | 35761 ft | 448 kts | 291° |
| 2026-05-06 00:50 | 24.68997 | -98.14552 | 35751 ft | 448 kts | 291° |
| 2026-05-06 00:50 | 24.71545 | -98.20764 | 35748 ft | 448 kts | 291° |
| 2026-05-06 00:51 | 24.74108 | -98.27024 | 35749 ft | 448 kts | 290° |
| 2026-05-06 00:51 | 24.76669 | -98.33286 | 35754 ft | 448 kts | 290° |
| 2026-05-06 00:52 | 24.79225 | -98.39545 | 35752 ft | 448 kts | 290° |
| 2026-05-06 00:52 | 24.81774 | -98.45795 | 35749 ft | 447 kts | 290° |
| 2026-05-06 00:53 | 24.84321 | -98.52049 | 35744 ft | 447 kts | 290° |
| 2026-05-06 00:53 | 24.86850 | -98.58269 | 35747 ft | 447 kts | 290° |
| 2026-05-06 00:54 | 24.89381 | -98.64500 | 35734 ft | 447 kts | 290° |
| 2026-05-06 00:54 | 24.91917 | -98.70756 | 35732 ft | 447 kts | 290° |
| 2026-05-06 00:55 | 24.94444 | -98.76998 | 35731 ft | 443 kts | 290° |
| 2026-05-06 00:55 | 24.96936 | -98.83160 | 35720 ft | 439 kts | 290° |
| 2026-05-06 00:55 | 24.98178 | -98.86236 | 35597 ft | 437 kts | 290° |
| 2026-05-06 00:56 | 24.99413 | -98.89300 | 34632 ft | 442 kts | 289° |
| 2026-05-06 00:56 | 25.00680 | -98.92447 | 33411 ft | 454 kts | 289° |
| 2026-05-06 00:56 | 25.01960 | -98.95621 | 32712 ft | 450 kts | 289° |
| 2026-05-06 00:56 | 25.03226 | -98.98764 | 31982 ft | 448 kts | 289° |
| 2026-05-06 00:57 | 25.04495 | -99.01918 | 31139 ft | 449 kts | 289° |
| 2026-05-06 00:57 | 25.05763 | -99.05073 | 30300 ft | 452 kts | 289° |
| 2026-05-06 00:57 | 25.07026 | -99.08216 | 29419 ft | 453 kts | 289° |
| 2026-05-06 00:57 | 25.08307 | -99.11406 | 28339 ft | 456 kts | 289° |
| 2026-05-06 00:58 | 25.09600 | -99.14628 | 27191 ft | 461 kts | 289° |
| 2026-05-06 00:58 | 25.10904 | -99.17883 | 26035 ft | 467 kts | 290° |
| 2026-05-06 00:58 | 25.12225 | -99.21180 | 24966 ft | 470 kts | 290° |
| 2026-05-06 00:58 | 25.13543 | -99.24472 | 24190 ft | 467 kts | 290° |
| 2026-05-06 00:59 | 25.14850 | -99.27737 | 23507 ft | 462 kts | 290° |
| 2026-05-06 00:59 | 25.16122 | -99.30918 | 22865 ft | 455 kts | 290° |
| 2026-05-06 00:59 | 25.17385 | -99.34079 | 22363 ft | 444 kts | 290° |
| 2026-05-06 00:59 | 25.18610 | -99.37145 | 22154 ft | 428 kts | 290° |
| 2026-05-06 01:00 | 25.19842 | -99.40088 | 21870 ft | 418 kts | 296° |
| 2026-05-06 01:00 | 25.21626 | -99.42630 | 21342 ft | 422 kts | 313° |
| 2026-05-06 01:00 | 25.24051 | -99.44466 | 20872 ft | 425 kts | 330° |
| 2026-05-06 01:00 | 25.26757 | -99.45752 | 20413 ft | 420 kts | 331° |
| 2026-05-06 01:01 | 25.28517 | -99.46635 | 20100 ft | 417 kts | 330° |
| 2026-05-06 01:01 | 25.31140 | -99.47969 | 19619 ft | 413 kts | 330° |
| 2026-05-06 01:01 | 25.33737 | -99.49300 | 19163 ft | 409 kts | 330° |
| 2026-05-06 01:01 | 25.36301 | -99.50618 | 18709 ft | 405 kts | 330° |
| 2026-05-06 01:02 | 25.38850 | -99.51930 | 18258 ft | 402 kts | 330° |
| 2026-05-06 01:02 | 25.41379 | -99.53234 | 17790 ft | 399 kts | 330° |
| 2026-05-06 01:02 | 25.43893 | -99.54531 | 17321 ft | 395 kts | 330° |
| 2026-05-06 01:02 | 25.46375 | -99.55812 | 16881 ft | 391 kts | 330° |
| 2026-05-06 01:03 | 25.48780 | -99.57057 | 16796 ft | 378 kts | 330° |
| 2026-05-06 01:03 | 25.51146 | -99.58288 | 16696 ft | 375 kts | 329° |
| 2026-05-06 01:03 | 25.53498 | -99.59511 | 16625 ft | 374 kts | 329° |
| 2026-05-06 01:03 | 25.55860 | -99.60739 | 16573 ft | 373 kts | 330° |
| 2026-05-06 01:04 | 25.58210 | -99.61961 | 16535 ft | 373 kts | 330° |
| 2026-05-06 01:04 | 25.60562 | -99.63185 | 16492 ft | 373 kts | 330° |
| 2026-05-06 01:04 | 25.62909 | -99.64407 | 16455 ft | 373 kts | 330° |
| 2026-05-06 01:04 | 25.65225 | -99.65612 | 16451 ft | 360 kts | 330° |
| 2026-05-06 01:05 | 25.67447 | -99.66770 | 16457 ft | 345 kts | 329° |
| 2026-05-06 01:05 | 25.70036 | -99.68120 | 16459 ft | 334 kts | 329° |
| 2026-05-06 01:05 | 25.72134 | -99.69215 | 16455 ft | 333 kts | 329° |
| 2026-05-06 01:05 | 25.74233 | -99.70309 | 16459 ft | 333 kts | 329° |
| 2026-05-06 01:06 | 25.76311 | -99.71435 | 16398 ft | 330 kts | 323° |
| 2026-05-06 01:06 | 25.77963 | -99.73080 | 16297 ft | 315 kts | 301° |
| 2026-05-06 01:06 | 25.79201 | -99.75086 | 16210 ft | 315 kts | 299° |
| 2026-05-06 01:06 | 25.80405 | -99.77084 | 16097 ft | 315 kts | 298° |
| 2026-05-06 01:07 | 25.81606 | -99.79117 | 15992 ft | 314 kts | 298° |
| 2026-05-06 01:07 | 25.82796 | -99.81155 | 15672 ft | 314 kts | 298° |
| 2026-05-06 01:07 | 25.83967 | -99.83178 | 15407 ft | 310 kts | 297° |
| 2026-05-06 01:07 | 25.85126 | -99.85189 | 15123 ft | 311 kts | 298° |
| 2026-05-06 01:08 | 25.86288 | -99.87214 | 14924 ft | 309 kts | 298° |
| 2026-05-06 01:08 | 25.87430 | -99.89206 | 14745 ft | 301 kts | 298° |
| 2026-05-06 01:08 | 25.88538 | -99.91142 | 14580 ft | 293 kts | 298° |
| 2026-05-06 01:08 | 25.89621 | -99.93034 | 14417 ft | 286 kts | 298° |
| 2026-05-06 01:09 | 25.90674 | -99.94876 | 14266 ft | 278 kts | 297° |
| 2026-05-06 01:09 | 25.91689 | -99.96652 | 14113 ft | 274 kts | 297° |
| 2026-05-06 01:09 | 25.92706 | -99.98432 | 13949 ft | 275 kts | 297° |
| 2026-05-06 01:09 | 25.93741 | -100.00241 | 13597 ft | 278 kts | 297° |
| 2026-05-06 01:10 | 25.94785 | -100.02069 | 13185 ft | 281 kts | 297° |
| 2026-05-06 01:10 | 25.95834 | -100.03905 | 12802 ft | 281 kts | 297° |
| 2026-05-06 01:10 | 25.96884 | -100.05742 | 12467 ft | 281 kts | 297° |
| 2026-05-06 01:10 | 25.97938 | -100.07592 | 11983 ft | 286 kts | 298° |
| 2026-05-06 01:11 | 25.99016 | -100.09481 | 11474 ft | 292 kts | 299° |
| 2026-05-06 01:11 | 26.00115 | -100.11408 | 10977 ft | 298 kts | 299° |
| 2026-05-06 01:11 | 26.01231 | -100.13367 | 10485 ft | 302 kts | 300° |
| 2026-05-06 01:11 | 26.02351 | -100.15333 | 9947 ft | 307 kts | 300° |
| 2026-05-06 01:12 | 26.03501 | -100.17353 | 9392 ft | 307 kts | 300° |
| 2026-05-06 01:12 | 26.04350 | -100.19479 | 8827 ft | 298 kts | 278° |
| 2026-05-06 01:12 | 26.04161 | -100.21713 | 8338 ft | 290 kts | 246° |
| 2026-05-06 01:12 | 26.02939 | -100.23415 | 7973 ft | 279 kts | 215° |
| 2026-05-06 01:13 | 26.01325 | -100.24464 | 7812 ft | 258 kts | 212° |
| 2026-05-06 01:13 | 25.99824 | -100.25458 | 7462 ft | 245 kts | 211° |
| 2026-05-06 01:13 | 25.98392 | -100.26414 | 7089 ft | 236 kts | 210° |
| 2026-05-06 01:13 | 25.97013 | -100.27340 | 6751 ft | 227 kts | 208° |
| 2026-05-06 01:14 | 25.94400 | -100.29097 | 6192 ft | 219 kts | 209° |
| 2026-05-06 01:14 | 25.93093 | -100.29974 | 5981 ft | 216 kts | 208° |
| 2026-05-06 01:14 | 25.91826 | -100.30817 | 5686 ft | 208 kts | 205° |
| 2026-05-06 01:15 | 25.90476 | -100.31142 | 5294 ft | 193 kts | 168° |
| 2026-05-06 01:15 | 25.89296 | -100.30632 | 5012 ft | 176 kts | 138° |
| 2026-05-06 01:15 | 25.88508 | -100.29633 | 4777 ft | 174 kts | 123° |
| 2026-05-06 01:15 | 25.87809 | -100.28509 | 4641 ft | 178 kts | 122° |
| 2026-05-06 01:16 | 25.87356 | -100.27756 | 4537 ft | 176 kts | 122° |
| 2026-05-06 01:16 | 25.86686 | -100.26618 | 4396 ft | 177 kts | 121° |
| 2026-05-06 01:16 | 25.86024 | -100.25465 | 4239 ft | 177 kts | 121° |
| 2026-05-06 01:16 | 25.85365 | -100.24303 | 4046 ft | 178 kts | 120° |
| 2026-05-06 01:17 | 25.84712 | -100.23139 | 3816 ft | 177 kts | 120° |
| 2026-05-06 01:17 | 25.84065 | -100.21977 | 3500 ft | 177 kts | 120° |
| 2026-05-06 01:17 | 25.83429 | -100.20829 | 3236 ft | 171 kts | 120° |
| 2026-05-06 01:17 | 25.82815 | -100.19723 | 2948 ft | 165 kts | 121° |
| 2026-05-06 01:18 | 25.82232 | -100.18647 | 2759 ft | 161 kts | 120° |
| 2026-05-06 01:18 | 25.81679 | -100.17573 | 2520 ft | 159 kts | 120° |
| 2026-05-06 01:18 | 25.81094 | -100.16546 | 2252 ft | 155 kts | 122° |
| 2026-05-06 01:18 | 25.80518 | -100.15550 | 2068 ft | 152 kts | 120° |
| 2026-05-06 01:19 | 25.79956 | -100.14549 | 1897 ft | 152 kts | 117° |
| 2026-05-06 01:19 | 25.79419 | -100.13536 | 1736 ft | 152 kts | 118° |
| 2026-05-06 01:19 | 25.78880 | -100.12551 | 1546 ft | 150 kts | 120° |
| 2026-05-06 01:19 | 25.78346 | -100.11577 | 1359 ft | 144 kts | 122° |
| 2026-05-06 01:20 | 25.77880 | -100.10748 | 1333 ft | 97 kts | 121° |
| 2026-05-06 01:20 | 25.77620 | -100.10274 | 1333 ft | 63 kts | 121° |
| 2026-05-06 01:20 | 25.77392 | -100.09861 | 1333 ft | 55 kts | 121° |
| 2026-05-06 01:20 | 25.77271 | -100.09686 | 1333 ft | 8 kts | 176° |
| 2026-05-06 01:21 | 25.77213 | -100.09723 | 1333 ft | 12 kts | 222° |
| 2026-05-06 01:21 | 25.77152 | -100.09801 | 1336 ft | 9 kts | 264° |
| 2026-05-06 01:21 | 25.77186 | -100.09884 | 1333 ft | 15 kts | 302° |
| 2026-05-06 01:21 | 25.77256 | -100.10009 | 1333 ft | 22 kts | 301° |
| 2026-05-06 01:22 | 25.77346 | -100.10173 | 1333 ft | 29 kts | 301° |
| 2026-05-06 01:22 | 25.77463 | -100.10386 | 1333 ft | 34 kts | 301° |
| 2026-05-06 01:22 | 25.77589 | -100.10616 | 1333 ft | 36 kts | 301° |
| 2026-05-06 01:22 | 25.77723 | -100.10863 | 1333 ft | 38 kts | 301° |
| 2026-05-06 01:23 | 25.77840 | -100.11075 | 1333 ft | 16 kts | 301° |
| 2026-05-06 01:23 | 25.77897 | -100.11177 | 1333 ft | 15 kts | 301° |
| 2026-05-06 01:23 | 25.77918 | -100.11218 | 1333 ft | 1 kts | 287° |
| 2026-05-06 01:23 | 25.77917 | -100.11224 | 1333 ft | 0 kts | 258° |
| 2026-05-06 01:24 | 25.77914 | -100.11233 | 1337 ft | 2 kts | 243° |
| 2026-05-06 01:24 | 25.77897 | -100.11254 | 1336 ft | 5 kts | 218° |
| 2026-05-06 01:24 | 25.77865 | -100.11275 | 1335 ft | 0 kts | 211° |
| 2026-05-06 01:24 | 25.77860 | -100.11279 | 1333 ft | 3 kts | 211° |
| 2026-05-06 01:25 | 25.77852 | -100.11284 | 1333 ft | 0 kts | 210° |
| 2026-05-06 01:25 | 25.77850 | -100.11286 | 1333 ft | 0 kts | 211° |